createdAt,value
2024-02-24T00:00:10.459Z,2.16
2024-02-24T00:02:42.926Z,1.96
2024-02-24T00:05:12.631Z,1.84
2024-02-24T00:07:41.178Z,2.00
2024-02-24T00:10:13.700Z,1.93
2024-02-24T00:12:42.302Z,1.93
2024-02-24T00:15:13.179Z,1.66
2024-02-24T00:17:41.950Z,1.56
2024-02-24T00:20:15.351Z,1.77
2024-02-24T00:22:44.249Z,1.69
2024-02-24T00:25:12.847Z,1.80
2024-02-24T00:27:41.983Z,1.91
2024-02-24T00:30:14.479Z,1.98
2024-02-24T00:32:43.114Z,1.97
2024-02-24T00:35:12.946Z,2.10
2024-02-24T00:37:41.847Z,2.12
2024-02-24T00:40:12.498Z,2.29
2024-02-24T00:42:40.961Z,2.29
2024-02-24T00:45:11.817Z,2.24
2024-02-24T00:47:40.389Z,2.23
2024-02-24T00:50:11.454Z,2.06
2024-02-24T00:52:40.195Z,2.15
2024-02-24T00:55:09.597Z,2.05
2024-02-24T00:57:38.100Z,2.04
2024-02-24T01:00:08.563Z,1.36
2024-02-24T01:02:38.619Z,1.78
2024-02-24T01:05:08.546Z,1.90
2024-02-24T01:07:37.615Z,1.91
2024-02-24T01:10:08.716Z,1.84
2024-02-24T01:12:37.216Z,1.81
2024-02-24T01:15:07.172Z,1.67
2024-02-24T01:17:37.310Z,1.74
2024-02-24T01:20:06.821Z,1.72
2024-02-24T01:22:35.304Z,1.53
2024-02-24T01:25:04.000Z,1.63
2024-02-24T01:27:32.660Z,1.49
2024-02-24T01:30:01.475Z,1.74
2024-02-24T01:32:30.429Z,1.75
2024-02-24T01:35:00.603Z,1.63
2024-02-24T01:37:29.065Z,1.67
2024-02-24T01:39:57.634Z,1.64
2024-02-24T01:42:27.218Z,1.66
2024-02-24T01:44:56.412Z,1.69
2024-02-24T01:47:25.508Z,1.51
2024-02-24T01:49:56.703Z,1.82
2024-02-24T01:52:27.713Z,1.82
2024-02-24T01:55:00.498Z,1.83
2024-02-24T01:57:34.311Z,1.64
2024-02-24T02:00:04.563Z,1.80
2024-02-24T02:02:35.531Z,1.74
2024-02-24T02:05:04.216Z,1.76
2024-02-24T02:07:34.473Z,1.66
2024-02-24T02:10:04.398Z,1.72
2024-02-24T02:12:37.195Z,1.62
2024-02-24T02:15:08.880Z,1.81
2024-02-24T02:17:39.077Z,1.92
2024-02-24T02:20:10.002Z,1.90
2024-02-24T02:22:40.051Z,2.13
2024-02-24T02:25:09.676Z,2.25
2024-02-24T02:27:38.222Z,2.21
2024-02-24T02:30:09.042Z,2.23
2024-02-24T02:32:37.793Z,2.10
2024-02-24T02:35:07.828Z,2.35
2024-02-24T02:37:36.391Z,2.09
2024-02-24T02:40:07.928Z,2.31
2024-02-24T02:42:36.980Z,2.25
2024-02-24T02:45:07.119Z,2.49
2024-02-24T02:47:38.402Z,2.46
2024-02-24T02:50:08.517Z,2.59
2024-02-24T02:52:37.622Z,2.52
2024-02-24T02:55:08.226Z,2.64
2024-02-24T02:57:37.999Z,2.58
2024-02-24T03:00:08.439Z,2.61
2024-02-24T03:02:36.989Z,2.34
2024-02-24T03:05:06.011Z,2.43
2024-02-24T03:07:35.673Z,2.61
2024-02-24T03:10:07.185Z,2.73
2024-02-24T03:12:36.033Z,2.67
2024-02-24T03:15:05.810Z,2.65
2024-02-24T03:17:34.548Z,2.83
2024-02-24T03:20:05.085Z,2.93
2024-02-24T03:22:34.985Z,2.77
2024-02-24T03:25:03.731Z,2.41
2024-02-24T03:27:33.710Z,2.28
2024-02-24T03:30:02.769Z,2.44
2024-02-24T03:32:31.632Z,2.37
2024-02-24T03:35:00.827Z,2.11
2024-02-24T03:37:29.370Z,2.23
2024-02-24T03:39:56.803Z,2.21
2024-02-24T03:42:25.654Z,2.01
2024-02-24T03:44:57.086Z,2.15
2024-02-24T03:47:25.913Z,2.05
2024-02-24T03:49:54.565Z,1.94
2024-02-24T03:52:23.002Z,1.96
2024-02-24T03:54:53.901Z,1.88
2024-02-24T03:57:22.310Z,2.01
2024-02-24T03:59:50.974Z,1.84
2024-02-24T04:02:20.900Z,2.05
2024-02-24T04:04:50.040Z,1.71
2024-02-24T04:07:20.442Z,1.98
2024-02-24T04:09:48.948Z,2.19
2024-02-24T04:12:17.890Z,1.95
2024-02-24T04:14:46.928Z,2.18
2024-02-24T04:17:15.433Z,2.27
2024-02-24T04:19:45.554Z,2.37
2024-02-24T04:22:14.466Z,1.98
2024-02-24T04:24:43.184Z,2.33
2024-02-24T04:27:11.638Z,2.23
2024-02-24T04:29:40.245Z,1.98
2024-02-24T04:32:08.926Z,2.20
2024-02-24T04:34:39.643Z,2.10
2024-02-24T04:37:09.783Z,2.11
2024-02-24T04:39:38.445Z,1.75
2024-02-24T04:42:09.285Z,2.10
2024-02-24T04:44:37.794Z,2.13
2024-02-24T04:47:07.041Z,2.15
2024-02-24T04:49:35.626Z,1.98
2024-02-24T04:52:05.838Z,2.02
2024-02-24T04:54:35.989Z,1.92
2024-02-24T04:57:05.414Z,1.87
2024-02-24T04:59:33.976Z,2.11
2024-02-24T05:02:03.225Z,2.39
2024-02-24T05:04:31.846Z,2.56
2024-02-24T05:07:03.225Z,2.59
2024-02-24T05:09:32.100Z,2.75
2024-02-24T05:12:02.143Z,2.74
2024-02-24T05:14:30.917Z,2.86
2024-02-24T05:16:59.485Z,2.87
2024-02-24T05:19:28.374Z,2.86
2024-02-24T05:21:58.040Z,2.60
2024-02-24T05:24:26.626Z,2.78
2024-02-24T05:26:55.259Z,2.69
2024-02-24T05:29:25.248Z,2.84
2024-02-24T05:31:53.870Z,2.71
2024-02-24T05:34:22.764Z,2.94
2024-02-24T05:36:51.660Z,2.92
2024-02-24T05:39:20.293Z,2.89
2024-02-24T05:41:49.474Z,3.13
2024-02-24T05:44:18.542Z,3.28
2024-02-24T05:46:48.658Z,3.45
2024-02-24T05:49:17.721Z,3.26
2024-02-24T05:51:47.074Z,3.38
2024-02-24T05:54:15.646Z,3.39
2024-02-24T05:56:44.157Z,3.64
2024-02-24T05:59:12.873Z,3.41
2024-02-24T06:01:41.280Z,3.57
2024-02-24T06:04:11.292Z,3.56
2024-02-24T06:06:40.194Z,3.69
2024-02-24T06:09:08.902Z,3.72
2024-02-24T06:11:37.471Z,3.60
2024-02-24T06:14:06.143Z,3.58
2024-02-24T06:16:34.852Z,3.56
2024-02-24T06:19:03.563Z,3.59
2024-02-24T06:21:34.079Z,3.49
2024-02-24T06:24:02.693Z,3.53
2024-02-24T06:26:31.983Z,3.40
2024-02-24T06:29:00.708Z,3.53
2024-02-24T06:31:29.131Z,3.50
2024-02-24T06:33:57.800Z,3.37
2024-02-24T06:36:26.371Z,3.27
2024-02-24T06:38:56.519Z,3.36
2024-02-24T06:41:26.050Z,3.13
2024-02-24T06:43:54.739Z,3.30
2024-02-24T06:46:26.446Z,3.70
2024-02-24T06:48:55.569Z,3.67
2024-02-24T06:51:24.294Z,3.40
2024-02-24T06:53:55.852Z,3.63
2024-02-24T06:56:25.940Z,3.79
2024-02-24T06:58:54.597Z,3.77
2024-02-24T07:01:24.450Z,3.80
2024-02-24T07:03:53.240Z,3.69
2024-02-24T07:06:21.777Z,3.95
2024-02-24T07:08:52.882Z,3.78
2024-02-24T07:11:22.000Z,3.95
2024-02-24T07:13:52.250Z,3.90
2024-02-24T07:16:20.812Z,3.85
2024-02-24T07:18:49.383Z,3.99
2024-02-24T07:21:18.644Z,3.61
2024-02-24T07:23:48.410Z,3.43
2024-02-24T07:26:17.163Z,3.31
2024-02-24T07:28:45.996Z,3.27
2024-02-24T07:31:16.540Z,3.35
2024-02-24T07:33:45.265Z,3.45
2024-02-24T07:36:14.228Z,3.61
2024-02-24T07:38:43.037Z,3.67
2024-02-24T07:41:11.609Z,3.91
2024-02-24T07:43:40.129Z,3.49
2024-02-24T07:46:08.887Z,4.04
2024-02-24T07:48:39.776Z,3.51
2024-02-24T07:51:08.597Z,3.46
2024-02-24T07:53:37.753Z,4.04
2024-02-24T07:56:07.436Z,4.03
2024-02-24T07:58:36.246Z,4.13
2024-02-24T08:01:05.053Z,4.32
2024-02-24T08:03:34.656Z,4.31
2024-02-24T08:06:07.847Z,3.81
2024-02-24T08:08:38.129Z,3.96
2024-02-24T08:11:07.807Z,4.16
2024-02-24T08:13:42.962Z,4.13
2024-02-24T08:16:11.934Z,4.06
2024-02-24T08:18:41.556Z,3.92
2024-02-24T08:21:11.788Z,3.86
2024-02-24T08:23:40.523Z,3.72
2024-02-24T08:26:09.286Z,3.81
2024-02-24T08:28:38.027Z,3.37
2024-02-24T08:31:07.472Z,3.77
2024-02-24T08:33:36.211Z,4.01
2024-02-24T08:36:05.215Z,4.60
2024-02-24T08:38:37.579Z,4.75
2024-02-24T08:41:07.852Z,4.66
2024-02-24T08:43:36.500Z,4.91
2024-02-24T08:46:05.293Z,4.93
2024-02-24T08:48:33.813Z,4.85
2024-02-24T08:51:02.513Z,4.71
2024-02-24T08:53:31.802Z,4.74
2024-02-24T08:56:03.930Z,4.81
2024-02-24T08:58:32.856Z,4.84
2024-02-24T09:01:01.925Z,4.76
2024-02-24T09:03:30.472Z,4.68
2024-02-24T09:05:59.766Z,4.74
2024-02-24T09:08:30.425Z,4.78
2024-02-24T09:10:59.119Z,4.66
2024-02-24T09:13:29.155Z,4.68
2024-02-24T09:15:57.668Z,4.71
2024-02-24T09:18:27.938Z,4.52
2024-02-24T09:20:58.198Z,4.39
2024-02-24T09:23:26.887Z,4.59
2024-02-24T09:25:55.508Z,4.46
2024-02-24T09:28:24.094Z,4.15
2024-02-24T09:30:54.250Z,4.45
2024-02-24T09:33:23.166Z,4.58
2024-02-24T09:35:51.936Z,4.51
2024-02-24T09:38:20.541Z,4.55
2024-02-24T09:40:51.638Z,4.35
2024-02-24T09:43:20.916Z,4.17
2024-02-24T09:45:50.498Z,4.13
2024-02-24T09:48:21.383Z,3.88
2024-02-24T09:50:50.129Z,3.97
2024-02-24T09:53:18.999Z,4.10
2024-02-24T09:55:50.206Z,3.94
2024-02-24T09:58:19.796Z,3.81
2024-02-24T10:00:52.105Z,3.89
2024-02-24T10:03:23.412Z,4.04
2024-02-24T10:05:52.346Z,4.18
2024-02-24T10:08:21.048Z,3.94
2024-02-24T10:10:49.570Z,3.85
2024-02-24T10:13:20.658Z,4.12
2024-02-24T10:15:49.665Z,4.28
2024-02-24T10:18:23.205Z,4.14
2024-02-24T10:20:56.234Z,3.94
2024-02-24T10:23:24.976Z,4.10
2024-02-24T10:25:54.915Z,4.25
2024-02-24T10:28:23.973Z,3.98
2024-02-24T10:30:52.554Z,4.11
2024-02-24T10:33:24.248Z,3.88
2024-02-24T10:35:56.034Z,3.95
2024-02-24T10:38:34.555Z,3.75
2024-02-24T10:41:09.363Z,3.84
2024-02-24T10:43:38.720Z,4.06
2024-02-24T10:46:07.430Z,3.99
2024-02-24T10:48:37.527Z,4.04
2024-02-24T10:51:06.606Z,4.34
2024-02-24T10:53:36.750Z,4.22
2024-02-24T10:56:06.229Z,4.44
2024-02-24T10:58:36.415Z,4.43
2024-02-24T11:01:06.725Z,3.76
2024-02-24T11:03:37.053Z,4.09
2024-02-24T11:06:06.902Z,4.17
2024-02-24T11:08:42.480Z,4.39
2024-02-24T11:11:13.220Z,4.71
2024-02-24T11:13:59.478Z,4.67
2024-02-24T11:16:37.336Z,4.52
2024-02-24T11:19:13.099Z,4.20
2024-02-24T11:22:01.939Z,4.51
2024-02-24T11:24:35.869Z,4.77
2024-02-24T11:27:08.282Z,4.93
2024-02-24T11:29:38.005Z,5.34
2024-02-24T11:32:09.387Z,4.63
2024-02-24T11:34:45.054Z,4.89
2024-02-24T11:37:18.388Z,5.03
2024-02-24T11:39:48.921Z,5.23
2024-02-24T11:42:17.800Z,5.01
2024-02-24T11:44:48.427Z,4.91
2024-02-24T11:47:20.849Z,4.63
2024-02-24T11:49:51.107Z,4.72
2024-02-24T11:52:19.952Z,4.77
2024-02-24T11:54:49.136Z,4.66
2024-02-24T11:57:19.619Z,4.84
2024-02-24T11:59:51.996Z,4.69
2024-02-24T12:02:21.992Z,4.94
2024-02-24T12:04:52.813Z,5.43
2024-02-24T12:07:23.495Z,4.90
2024-02-24T12:09:54.120Z,4.71
2024-02-24T12:12:23.503Z,4.88
2024-02-24T12:14:52.293Z,4.91
2024-02-24T12:17:21.734Z,4.71
2024-02-24T12:19:52.184Z,4.29
2024-02-24T12:22:20.766Z,4.23
2024-02-24T12:24:49.271Z,4.08
2024-02-24T12:27:18.029Z,4.22
2024-02-24T12:29:47.006Z,3.96
2024-02-24T12:32:16.233Z,3.93
2024-02-24T12:34:45.457Z,4.01
2024-02-24T12:37:16.601Z,4.19
2024-02-24T12:39:46.490Z,4.01
2024-02-24T12:42:15.033Z,3.69
2024-02-24T12:44:43.638Z,4.01
2024-02-24T12:47:14.334Z,4.25
2024-02-24T12:49:45.675Z,4.67
2024-02-24T12:52:15.912Z,4.73
2024-02-24T12:54:44.561Z,4.84
2024-02-24T12:57:13.418Z,5.55
2024-02-24T12:59:42.200Z,5.66
2024-02-24T13:02:10.770Z,5.92
2024-02-24T13:04:39.323Z,5.75
2024-02-24T13:07:07.820Z,5.76
2024-02-24T13:09:37.745Z,5.27
2024-02-24T13:12:08.017Z,5.24
2024-02-24T13:14:37.161Z,4.84
2024-02-24T13:17:06.089Z,4.88
2024-02-24T13:19:35.339Z,5.12
2024-02-24T13:22:04.371Z,5.04
2024-02-24T13:24:32.866Z,5.08
2024-02-24T13:27:03.378Z,5.40
2024-02-24T13:29:32.049Z,5.47
2024-02-24T13:32:00.721Z,5.27
2024-02-24T13:34:29.175Z,4.77
2024-02-24T13:36:57.934Z,5.48
2024-02-24T13:39:26.833Z,5.20
2024-02-24T13:41:55.585Z,5.61
2024-02-24T13:44:25.937Z,5.40
2024-02-24T13:46:54.449Z,5.97
2024-02-24T13:49:25.675Z,6.31
2024-02-24T13:51:54.338Z,6.64
2024-02-24T13:54:24.127Z,6.87
2024-02-24T13:56:54.982Z,6.88
2024-02-24T13:59:23.657Z,6.87
2024-02-24T14:01:56.028Z,6.66
2024-02-24T14:04:24.479Z,6.46
2024-02-24T14:06:53.239Z,6.71
2024-02-24T14:09:21.858Z,6.69
2024-02-24T14:11:50.756Z,6.81
2024-02-24T14:14:19.534Z,6.50
2024-02-24T14:16:48.398Z,6.19
2024-02-24T14:19:21.816Z,5.77
2024-02-24T14:21:52.386Z,5.74
2024-02-24T14:24:21.026Z,5.74
2024-02-24T14:26:49.638Z,5.75
2024-02-24T14:29:18.375Z,5.60
2024-02-24T14:31:46.924Z,5.59
2024-02-24T14:34:15.574Z,5.78
2024-02-24T14:36:46.069Z,5.63
2024-02-24T14:39:14.837Z,5.66
2024-02-24T14:41:43.504Z,5.72
2024-02-24T14:44:22.398Z,5.92
2024-02-24T14:46:58.615Z,6.12
2024-02-24T14:49:27.452Z,5.70
2024-02-24T14:51:57.044Z,5.77
2024-02-24T14:54:26.154Z,4.95
2024-02-24T14:56:55.212Z,5.22
2024-02-24T14:59:25.156Z,5.43
2024-02-24T15:01:54.576Z,5.39
2024-02-24T15:04:25.350Z,5.51
2024-02-24T15:06:54.442Z,5.69
2024-02-24T15:09:23.088Z,5.45
2024-02-24T15:11:52.090Z,5.44
2024-02-24T15:14:21.012Z,5.59
2024-02-24T15:16:51.845Z,5.70
2024-02-24T15:19:21.699Z,5.57
2024-02-24T15:21:50.745Z,5.98
2024-02-24T15:24:20.807Z,5.84
2024-02-24T15:26:49.702Z,5.84
2024-02-24T15:29:18.617Z,5.64
2024-02-24T15:31:47.329Z,5.75
2024-02-24T15:34:18.106Z,5.41
2024-02-24T15:36:46.694Z,5.26
2024-02-24T15:39:15.214Z,5.41
2024-02-24T15:41:48.228Z,5.21
2024-02-24T15:44:16.890Z,5.39
2024-02-24T15:46:47.768Z,5.35
2024-02-24T15:49:17.821Z,5.37
2024-02-24T15:51:46.740Z,5.20
2024-02-24T15:54:15.847Z,4.86
2024-02-24T15:56:44.407Z,5.13
2024-02-24T15:59:13.163Z,5.10
2024-02-24T16:01:41.911Z,5.21
2024-02-24T16:04:10.621Z,5.17
2024-02-24T16:06:40.637Z,4.78
2024-02-24T16:09:10.686Z,4.65
2024-02-24T16:11:39.311Z,4.82
2024-02-24T16:14:08.383Z,4.72
2024-02-24T16:16:37.109Z,4.63
2024-02-24T16:19:06.811Z,4.70
2024-02-24T16:21:35.612Z,4.67
2024-02-24T16:24:06.576Z,4.68
2024-02-24T16:26:35.399Z,4.78
2024-02-24T16:29:04.063Z,5.06
2024-02-24T16:31:32.712Z,5.09
2024-02-24T16:34:02.617Z,5.03
2024-02-24T16:36:33.131Z,5.30
2024-02-24T16:39:05.739Z,5.21
2024-02-24T16:41:36.478Z,5.19
2024-02-24T16:44:08.581Z,5.40
2024-02-24T16:46:44.268Z,5.28
2024-02-24T16:49:14.117Z,5.19
2024-02-24T16:51:43.587Z,5.28
2024-02-24T16:54:13.121Z,5.10
2024-02-24T16:56:43.642Z,5.09
2024-02-24T16:59:12.851Z,4.86
2024-02-24T17:01:41.700Z,4.33
2024-02-24T17:04:10.962Z,4.62
2024-02-24T17:06:41.095Z,4.77
2024-02-24T17:09:11.644Z,4.46
2024-02-24T17:11:43.031Z,4.40
2024-02-24T17:14:11.770Z,4.39
2024-02-24T17:16:40.363Z,4.30
2024-02-24T17:19:09.360Z,4.12
2024-02-24T17:21:38.273Z,3.88
2024-02-24T17:24:07.497Z,4.16
2024-02-24T17:26:36.232Z,4.17
2024-02-24T17:29:06.334Z,4.19
2024-02-24T17:31:34.816Z,4.41
2024-02-24T17:34:03.902Z,4.40
2024-02-24T17:36:39.795Z,4.56
2024-02-24T17:39:08.773Z,4.42
2024-02-24T17:41:39.372Z,4.47
2024-02-24T17:44:09.426Z,4.46
2024-02-24T17:46:39.299Z,4.58
2024-02-24T17:49:08.294Z,4.63
2024-02-24T17:51:36.985Z,4.83
2024-02-24T17:54:05.865Z,4.89
2024-02-24T17:56:36.160Z,4.87
2024-02-24T17:59:04.747Z,4.67
2024-02-24T18:01:34.677Z,4.90
2024-02-24T18:04:04.000Z,4.96
2024-02-24T18:06:33.277Z,4.94
2024-02-24T18:09:02.313Z,4.95
2024-02-24T18:11:32.313Z,4.98
2024-02-24T18:14:01.097Z,4.92
2024-02-24T18:16:29.676Z,5.02
2024-02-24T18:19:00.102Z,4.21
2024-02-24T18:21:29.019Z,5.12
2024-02-24T18:23:57.809Z,5.06
2024-02-24T18:26:26.616Z,5.14
2024-02-24T18:29:00.851Z,4.82
2024-02-24T18:31:29.985Z,5.05
2024-02-24T18:34:00.956Z,5.04
2024-02-24T18:36:30.015Z,5.16
2024-02-24T18:38:58.774Z,5.12
2024-02-24T18:41:27.427Z,4.79
2024-02-24T18:43:55.823Z,4.68
2024-02-24T18:46:24.523Z,4.82
2024-02-24T18:48:53.449Z,4.83
2024-02-24T18:51:23.900Z,4.84
2024-02-24T18:53:52.941Z,4.62
2024-02-24T18:56:22.143Z,4.92
2024-02-24T18:58:50.930Z,4.96
2024-02-24T19:01:19.557Z,4.89
2024-02-24T19:03:48.403Z,4.95
2024-02-24T19:06:17.801Z,5.00
2024-02-24T19:08:48.488Z,4.93
2024-02-24T19:11:17.075Z,4.76
2024-02-24T19:13:45.807Z,4.76
2024-02-24T19:16:17.494Z,5.03
2024-02-24T19:18:46.231Z,4.92
2024-02-24T19:21:16.038Z,4.93
2024-02-24T19:23:44.591Z,4.86
2024-02-24T19:26:17.477Z,5.01
2024-02-24T19:28:46.062Z,4.92
2024-02-24T19:31:14.203Z,4.95
2024-02-24T19:33:43.222Z,4.78
2024-02-24T19:36:11.954Z,4.89
2024-02-24T19:38:41.207Z,4.77
2024-02-24T19:41:10.785Z,4.41
2024-02-24T19:43:40.702Z,4.58
2024-02-24T19:46:10.102Z,4.39
2024-02-24T19:48:38.689Z,4.55
2024-02-24T19:51:13.703Z,4.54
2024-02-24T19:53:42.569Z,4.59
2024-02-24T19:56:11.601Z,4.54
2024-02-24T19:58:47.866Z,4.55
2024-02-24T20:01:23.323Z,4.72
2024-02-24T20:03:52.005Z,4.61
2024-02-24T20:06:21.085Z,4.83
2024-02-24T20:08:51.806Z,4.91
2024-02-24T20:11:20.365Z,4.86
2024-02-24T20:13:50.544Z,4.73
2024-02-24T20:16:19.054Z,4.62
2024-02-24T20:18:48.006Z,4.84
2024-02-24T20:21:17.624Z,4.94
2024-02-24T20:23:47.450Z,4.91
2024-02-24T20:26:16.509Z,4.96
2024-02-24T20:28:45.710Z,4.85
2024-02-24T20:31:16.416Z,4.68
2024-02-24T20:33:53.479Z,4.84
2024-02-24T20:36:28.973Z,4.69
2024-02-24T20:39:00.118Z,4.79
2024-02-24T20:41:30.397Z,4.73
2024-02-24T20:44:01.066Z,4.71
2024-02-24T20:46:30.985Z,4.77
2024-02-24T20:48:59.699Z,4.77
2024-02-24T20:51:28.273Z,4.61
2024-02-24T20:53:56.759Z,4.40
2024-02-24T20:56:25.486Z,4.47
2024-02-24T20:58:54.045Z,4.48
2024-02-24T21:01:25.047Z,4.46
2024-02-24T21:03:57.391Z,4.44
2024-02-24T21:06:26.709Z,4.57
2024-02-24T21:08:55.660Z,4.40
2024-02-24T21:11:24.198Z,4.32
2024-02-24T21:13:53.184Z,4.41
2024-02-24T21:16:21.739Z,4.46
2024-02-24T21:18:52.497Z,4.16
2024-02-24T21:21:22.594Z,4.43
2024-02-24T21:23:55.231Z,4.54
2024-02-24T21:26:24.699Z,4.47
2024-02-24T21:28:53.947Z,4.34
2024-02-24T21:31:23.316Z,4.59
2024-02-24T21:33:52.306Z,4.53
2024-02-24T21:36:22.553Z,4.60
2024-02-24T21:38:51.727Z,4.40
2024-02-24T21:41:21.721Z,4.40
2024-02-24T21:43:50.931Z,3.86
2024-02-24T21:46:19.663Z,4.44
2024-02-24T21:48:49.496Z,4.35
2024-02-24T21:51:18.253Z,4.60
2024-02-24T21:53:48.214Z,4.55
2024-02-24T21:56:16.831Z,4.70
2024-02-24T21:58:45.355Z,4.63
2024-02-24T22:01:18.158Z,4.58
2024-02-24T22:03:47.021Z,4.56
2024-02-24T22:06:15.907Z,4.35
2024-02-24T22:08:44.711Z,4.50
2024-02-24T22:11:14.860Z,4.60
2024-02-24T22:13:45.418Z,4.51
2024-02-24T22:16:15.698Z,4.44
2024-02-24T22:18:45.515Z,4.60
2024-02-24T22:21:16.268Z,4.64
2024-02-24T22:23:44.862Z,4.29
2024-02-24T22:26:15.223Z,4.22
2024-02-24T22:28:44.160Z,4.48
2024-02-24T22:31:14.269Z,4.24
2024-02-24T22:33:43.096Z,4.08
2024-02-24T22:36:12.829Z,4.25
2024-02-24T22:38:41.603Z,4.30
2024-02-24T22:41:10.543Z,3.99
2024-02-24T22:43:40.893Z,4.34
2024-02-24T22:46:10.607Z,4.28
2024-02-24T22:48:40.927Z,4.36
2024-02-24T22:51:09.823Z,4.19
2024-02-24T22:53:38.511Z,4.23
2024-02-24T22:56:09.460Z,4.13
2024-02-24T22:58:39.641Z,4.17
2024-02-24T23:01:08.345Z,4.19
2024-02-24T23:03:36.997Z,4.24
2024-02-24T23:06:06.462Z,4.14
2024-02-24T23:08:35.577Z,4.31
2024-02-24T23:11:05.605Z,3.71
2024-02-24T23:13:34.283Z,4.22
2024-02-24T23:16:06.468Z,4.10
2024-02-24T23:18:35.386Z,4.12
2024-02-24T23:21:03.945Z,4.12
2024-02-24T23:23:32.927Z,4.20
2024-02-24T23:26:01.946Z,4.07
2024-02-24T23:28:30.445Z,4.17
2024-02-24T23:30:59.693Z,4.08
2024-02-24T23:33:29.904Z,4.03
2024-02-24T23:35:58.569Z,4.20
2024-02-24T23:38:27.107Z,4.05
2024-02-24T23:40:55.859Z,3.99
2024-02-24T23:43:24.630Z,3.82
2024-02-24T23:45:53.225Z,4.29
2024-02-24T23:48:21.819Z,4.44
2024-02-24T23:50:51.890Z,4.45
2024-02-24T23:53:20.723Z,4.37
2024-02-24T23:55:52.563Z,4.40
2024-02-24T23:58:21.444Z,4.25
